sensor_id;sensor_type;location;lat;lon;timestamp;temperature;humidity
49679;DHT22;35570;48.218;16.326;2024-01-10T00:01:18;-5.30;93.90
49679;DHT22;35570;48.218;16.326;2024-01-10T00:03:44;-5.40;93.70
49679;DHT22;35570;48.218;16.326;2024-01-10T00:06:10;-5.40;93.80
49679;DHT22;35570;48.218;16.326;2024-01-10T00:08:37;-5.40;93.70
49679;DHT22;35570;48.218;16.326;2024-01-10T00:11:03;-5.40;93.80
49679;DHT22;35570;48.218;16.326;2024-01-10T00:13:31;-5.50;93.80
49679;DHT22;35570;48.218;16.326;2024-01-10T00:15:57;-5.50;93.90
49679;DHT22;35570;48.218;16.326;2024-01-10T00:18:24;-5.50;93.90
49679;DHT22;35570;48.218;16.326;2024-01-10T00:20:51;-5.50;93.90
49679;DHT22;35570;48.218;16.326;2024-01-10T00:23:19;-5.50;94.10
49679;DHT22;35570;48.218;16.326;2024-01-10T00:25:45;-5.60;94.00
49679;DHT22;35570;48.218;16.326;2024-01-10T00:28:11;-5.60;94.00
49679;DHT22;35570;48.218;16.326;2024-01-10T00:30:37;-5.60;94.20
49679;DHT22;35570;48.218;16.326;2024-01-10T00:33:03;-5.60;94.20
49679;DHT22;35570;48.218;16.326;2024-01-10T00:35:29;-5.60;94.30
49679;DHT22;35570;48.218;16.326;2024-01-10T00:37:54;-5.60;94.20
49679;DHT22;35570;48.218;16.326;2024-01-10T00:40:20;-5.60;94.30
49679;DHT22;35570;48.218;16.326;2024-01-10T00:42:47;-5.60;94.20
49679;DHT22;35570;48.218;16.326;2024-01-10T00:45:12;-5.70;94.40
49679;DHT22;35570;48.218;16.326;2024-01-10T00:47:38;-5.70;94.40
49679;DHT22;35570;48.218;16.326;2024-01-10T00:50:04;-5.70;94.40
49679;DHT22;35570;48.218;16.326;2024-01-10T00:52:30;-5.70;94.50
49679;DHT22;35570;48.218;16.326;2024-01-10T00:54:57;-5.70;94.50
49679;DHT22;35570;48.218;16.326;2024-01-10T00:57:23;-5.70;94.70
49679;DHT22;35570;48.218;16.326;2024-01-10T00:59:49;-5.70;94.70
49679;DHT22;35570;48.218;16.326;2024-01-10T01:02:15;-5.70;94.70
49679;DHT22;35570;48.218;16.326;2024-01-10T01:04:41;-5.70;94.60
49679;DHT22;35570;48.218;16.326;2024-01-10T01:07:08;-5.80;94.70
49679;DHT22;35570;48.218;16.326;2024-01-10T01:09:34;-5.80;94.90
49679;DHT22;35570;48.218;16.326;2024-01-10T01:12:00;-5.80;94.80
49679;DHT22;35570;48.218;16.326;2024-01-10T01:14:28;-5.80;95.00
49679;DHT22;35570;48.218;16.326;2024-01-10T01:16:54;-5.80;95.00
49679;DHT22;35570;48.218;16.326;2024-01-10T01:19:20;-5.80;95.00
49679;DHT22;35570;48.218;16.326;2024-01-10T01:21:46;-5.80;95.00
49679;DHT22;35570;48.218;16.326;2024-01-10T01:24:12;-5.80;95.00
49679;DHT22;35570;48.218;16.326;2024-01-10T01:26:38;-5.80;95.20
49679;DHT22;35570;48.218;16.326;2024-01-10T01:29:04;-5.80;95.10
49679;DHT22;35570;48.218;16.326;2024-01-10T01:31:31;-5.80;95.10
49679;DHT22;35570;48.218;16.326;2024-01-10T01:33:57;-5.80;95.10
49679;DHT22;35570;48.218;16.326;2024-01-10T01:36:23;-5.80;95.20
49679;DHT22;35570;48.218;16.326;2024-01-10T01:38:49;-5.80;95.20
49679;DHT22;35570;48.218;16.326;2024-01-10T01:41:15;-5.90;95.30
49679;DHT22;35570;48.218;16.326;2024-01-10T01:43:43;-5.90;95.40
49679;DHT22;35570;48.218;16.326;2024-01-10T01:46:10;-5.90;95.60
49679;DHT22;35570;48.218;16.326;2024-01-10T01:48:36;-5.90;95.60
49679;DHT22;35570;48.218;16.326;2024-01-10T01:51:06;-5.90;95.70
49679;DHT22;35570;48.218;16.326;2024-01-10T01:53:36;-5.90;95.70
49679;DHT22;35570;48.218;16.326;2024-01-10T01:56:08;-5.90;95.60
49679;DHT22;35570;48.218;16.326;2024-01-10T01:58:35;-5.90;95.70
49679;DHT22;35570;48.218;16.326;2024-01-10T02:01:04;-6.00;95.80
49679;DHT22;35570;48.218;16.326;2024-01-10T02:03:33;-6.00;95.90
49679;DHT22;35570;48.218;16.326;2024-01-10T02:06:00;-6.00;96.00
49679;DHT22;35570;48.218;16.326;2024-01-10T02:08:32;-6.00;96.00
49679;DHT22;35570;48.218;16.326;2024-01-10T02:10:58;-6.00;96.30
49679;DHT22;35570;48.218;16.326;2024-01-10T02:13:24;-6.00;96.60
49679;DHT22;35570;48.218;16.326;2024-01-10T02:15:50;-6.00;96.40
49679;DHT22;35570;48.218;16.326;2024-01-10T02:18:16;-5.90;96.40
49679;DHT22;35570;48.218;16.326;2024-01-10T02:20:45;-5.90;96.30
49679;DHT22;35570;48.218;16.326;2024-01-10T02:23:11;-6.00;96.40
49679;DHT22;35570;48.218;16.326;2024-01-10T02:25:37;-6.00;96.40
49679;DHT22;35570;48.218;16.326;2024-01-10T02:28:04;-6.10;96.50
49679;DHT22;35570;48.218;16.326;2024-01-10T02:30:30;-6.00;96.60
49679;DHT22;35570;48.218;16.326;2024-01-10T02:32:55;-6.00;96.50
49679;DHT22;35570;48.218;16.326;2024-01-10T02:35:21;-6.10;96.60
49679;DHT22;35570;48.218;16.326;2024-01-10T02:37:47;-6.00;96.80
49679;DHT22;35570;48.218;16.326;2024-01-10T02:40:15;-6.00;96.80
49679;DHT22;35570;48.218;16.326;2024-01-10T02:42:41;-6.00;96.70
49679;DHT22;35570;48.218;16.326;2024-01-10T02:45:07;-6.10;96.70
49679;DHT22;35570;48.218;16.326;2024-01-10T02:47:33;-6.10;96.70
49679;DHT22;35570;48.218;16.326;2024-01-10T02:49:58;-6.10;97.00
49679;DHT22;35570;48.218;16.326;2024-01-10T02:52:24;-6.10;97.40
49679;DHT22;35570;48.218;16.326;2024-01-10T02:54:50;-6.10;97.10
49679;DHT22;35570;48.218;16.326;2024-01-10T02:57:15;-6.10;97.20
49679;DHT22;35570;48.218;16.326;2024-01-10T02:59:41;-6.10;97.20
49679;DHT22;35570;48.218;16.326;2024-01-10T03:02:06;-6.10;97.40
49679;DHT22;35570;48.218;16.326;2024-01-10T03:04:32;-6.20;97.40
49679;DHT22;35570;48.218;16.326;2024-01-10T03:06:57;-6.10;97.70
49679;DHT22;35570;48.218;16.326;2024-01-10T03:09:23;-6.10;97.70
49679;DHT22;35570;48.218;16.326;2024-01-10T03:11:49;-6.10;97.90
49679;DHT22;35570;48.218;16.326;2024-01-10T03:14:15;-6.10;97.70
49679;DHT22;35570;48.218;16.326;2024-01-10T03:16:40;-6.10;97.70
49679;DHT22;35570;48.218;16.326;2024-01-10T03:19:06;-6.10;97.60
49679;DHT22;35570;48.218;16.326;2024-01-10T03:21:32;-6.20;97.60
49679;DHT22;35570;48.218;16.326;2024-01-10T03:23:58;-6.10;97.70
49679;DHT22;35570;48.218;16.326;2024-01-10T03:26:25;-6.20;97.60
49679;DHT22;35570;48.218;16.326;2024-01-10T03:28:51;-6.20;97.90
49679;DHT22;35570;48.218;16.326;2024-01-10T03:31:17;-6.20;97.80
49679;DHT22;35570;48.218;16.326;2024-01-10T03:33:42;-6.20;98.00
49679;DHT22;35570;48.218;16.326;2024-01-10T03:36:11;-6.20;98.00
49679;DHT22;35570;48.218;16.326;2024-01-10T03:38:37;-6.10;98.00
49679;DHT22;35570;48.218;16.326;2024-01-10T03:41:03;-5.70;97.70
49679;DHT22;35570;48.218;16.326;2024-01-10T03:43:29;-6.20;97.70
49679;DHT22;35570;48.218;16.326;2024-01-10T03:45:57;-6.20;97.70
49679;DHT22;35570;48.218;16.326;2024-01-10T03:48:23;-6.20;97.60
49679;DHT22;35570;48.218;16.326;2024-01-10T03:50:49;-6.20;97.70
49679;DHT22;35570;48.218;16.326;2024-01-10T03:53:14;-6.30;97.70
49679;DHT22;35570;48.218;16.326;2024-01-10T03:55:40;-5.70;98.00
49679;DHT22;35570;48.218;16.326;2024-01-10T03:58:06;-6.30;97.80
49679;DHT22;35570;48.218;16.326;2024-01-10T04:00:31;-6.30;97.80
49679;DHT22;35570;48.218;16.326;2024-01-10T04:02:57;-6.30;98.70
49679;DHT22;35570;48.218;16.326;2024-01-10T04:05:23;-6.30;99.90
49679;DHT22;35570;48.218;16.326;2024-01-10T04:07:51;-6.30;99.90
49679;DHT22;35570;48.218;16.326;2024-01-10T04:10:16;-6.20;99.90
49679;DHT22;35570;48.218;16.326;2024-01-10T04:12:43;-6.10;99.90
49679;DHT22;35570;48.218;16.326;2024-01-10T04:15:09;-6.10;99.90
49679;DHT22;35570;48.218;16.326;2024-01-10T04:17:35;-6.00;99.90
49679;DHT22;35570;48.218;16.326;2024-01-10T04:20:01;-6.00;99.90
49679;DHT22;35570;48.218;16.326;2024-01-10T04:22:26;-5.90;99.90
49679;DHT22;35570;48.218;16.326;2024-01-10T04:24:52;-5.90;99.90
49679;DHT22;35570;48.218;16.326;2024-01-10T04:27:18;-5.90;99.80
49679;DHT22;35570;48.218;16.326;2024-01-10T04:29:44;-5.90;99.80
49679;DHT22;35570;48.218;16.326;2024-01-10T04:32:10;-5.90;99.70
49679;DHT22;35570;48.218;16.326;2024-01-10T04:34:35;-5.90;99.90
49679;DHT22;35570;48.218;16.326;2024-01-10T04:37:01;-5.90;99.90
49679;DHT22;35570;48.218;16.326;2024-01-10T04:39:27;-5.90;99.90
49679;DHT22;35570;48.218;16.326;2024-01-10T04:41:53;-5.90;99.50
49679;DHT22;35570;48.218;16.326;2024-01-10T04:44:19;-5.90;99.10
49679;DHT22;35570;48.218;16.326;2024-01-10T04:46:44;-6.00;98.90
49679;DHT22;35570;48.218;16.326;2024-01-10T04:49:10;-6.00;99.20
49679;DHT22;35570;48.218;16.326;2024-01-10T04:51:35;-6.10;99.00
49679;DHT22;35570;48.218;16.326;2024-01-10T04:54:01;-6.20;99.10
49679;DHT22;35570;48.218;16.326;2024-01-10T04:56:27;-6.20;99.70
49679;DHT22;35570;48.218;16.326;2024-01-10T04:58:52;-6.20;99.70
49679;DHT22;35570;48.218;16.326;2024-01-10T05:01:18;-6.20;99.90
49679;DHT22;35570;48.218;16.326;2024-01-10T05:03:44;-6.30;99.50
49679;DHT22;35570;48.218;16.326;2024-01-10T05:06:10;-6.30;99.70
49679;DHT22;35570;48.218;16.326;2024-01-10T05:08:36;-6.30;99.70
49679;DHT22;35570;48.218;16.326;2024-01-10T05:11:01;-6.30;99.50
49679;DHT22;35570;48.218;16.326;2024-01-10T05:13:28;-6.40;99.80
49679;DHT22;35570;48.218;16.326;2024-01-10T05:15:53;-6.30;99.70
49679;DHT22;35570;48.218;16.326;2024-01-10T05:18:20;-6.30;99.90
49679;DHT22;35570;48.218;16.326;2024-01-10T05:20:46;-6.30;99.90
49679;DHT22;35570;48.218;16.326;2024-01-10T05:23:11;-6.30;99.90
49679;DHT22;35570;48.218;16.326;2024-01-10T05:25:37;-6.40;99.90
49679;DHT22;35570;48.218;16.326;2024-01-10T05:28:02;-6.40;99.90
49679;DHT22;35570;48.218;16.326;2024-01-10T05:30:29;-6.40;99.90
49679;DHT22;35570;48.218;16.326;2024-01-10T05:32:55;-6.40;99.90
49679;DHT22;35570;48.218;16.326;2024-01-10T05:35:21;-6.40;99.90
49679;DHT22;35570;48.218;16.326;2024-01-10T05:37:46;-6.40;99.90
49679;DHT22;35570;48.218;16.326;2024-01-10T05:40:12;-6.40;99.90
49679;DHT22;35570;48.218;16.326;2024-01-10T05:42:38;-6.40;99.90
49679;DHT22;35570;48.218;16.326;2024-01-10T05:45:04;-6.40;99.90
49679;DHT22;35570;48.218;16.326;2024-01-10T05:47:31;-6.40;99.90
49679;DHT22;35570;48.218;16.326;2024-01-10T05:49:56;-6.40;99.90
49679;DHT22;35570;48.218;16.326;2024-01-10T05:52:22;-6.40;99.90
49679;DHT22;35570;48.218;16.326;2024-01-10T05:54:48;-6.40;99.90
49679;DHT22;35570;48.218;16.326;2024-01-10T05:57:14;-6.40;99.90
49679;DHT22;35570;48.218;16.326;2024-01-10T05:59:40;-6.40;99.90
49679;DHT22;35570;48.218;16.326;2024-01-10T06:02:05;-6.40;99.90
49679;DHT22;35570;48.218;16.326;2024-01-10T06:04:31;-6.40;99.90
49679;DHT22;35570;48.218;16.326;2024-01-10T06:06:58;-6.40;99.90
49679;DHT22;35570;48.218;16.326;2024-01-10T06:09:24;-6.40;99.90
49679;DHT22;35570;48.218;16.326;2024-01-10T06:11:50;-6.50;99.90
49679;DHT22;35570;48.218;16.326;2024-01-10T06:14:16;-6.50;99.90
49679;DHT22;35570;48.218;16.326;2024-01-10T06:16:41;-6.50;99.90
49679;DHT22;35570;48.218;16.326;2024-01-10T06:19:07;-6.50;99.90
49679;DHT22;35570;48.218;16.326;2024-01-10T06:21:33;-6.50;99.90
49679;DHT22;35570;48.218;16.326;2024-01-10T06:23:58;-6.50;99.90
49679;DHT22;35570;48.218;16.326;2024-01-10T06:26:24;-6.50;99.90
49679;DHT22;35570;48.218;16.326;2024-01-10T06:28:49;-6.50;99.90
49679;DHT22;35570;48.218;16.326;2024-01-10T06:31:15;-6.50;99.90
49679;DHT22;35570;48.218;16.326;2024-01-10T06:33:41;-6.50;99.90
49679;DHT22;35570;48.218;16.326;2024-01-10T06:36:06;-6.40;99.90
49679;DHT22;35570;48.218;16.326;2024-01-10T06:38:51;-6.30;99.90
49679;DHT22;35570;48.218;16.326;2024-01-10T06:41:17;-6.30;99.90
49679;DHT22;35570;48.218;16.326;2024-01-10T06:43:48;-6.30;99.90
49679;DHT22;35570;48.218;16.326;2024-01-10T06:46:14;-6.20;99.90
49679;DHT22;35570;48.218;16.326;2024-01-10T06:48:39;-6.20;99.90
49679;DHT22;35570;48.218;16.326;2024-01-10T06:51:10;-6.10;99.90
49679;DHT22;35570;48.218;16.326;2024-01-10T06:53:36;-6.10;99.90
49679;DHT22;35570;48.218;16.326;2024-01-10T06:56:02;-6.00;99.90
49679;DHT22;35570;48.218;16.326;2024-01-10T06:58:27;-6.00;99.90
49679;DHT22;35570;48.218;16.326;2024-01-10T07:00:53;-6.00;99.90
49679;DHT22;35570;48.218;16.326;2024-01-10T07:03:19;-6.00;99.90
49679;DHT22;35570;48.218;16.326;2024-01-10T07:05:44;-5.90;99.90
49679;DHT22;35570;48.218;16.326;2024-01-10T07:08:10;-5.90;99.90
49679;DHT22;35570;48.218;16.326;2024-01-10T07:10:36;-5.90;99.90
49679;DHT22;35570;48.218;16.326;2024-01-10T07:13:03;-5.80;99.90
49679;DHT22;35570;48.218;16.326;2024-01-10T07:15:30;-5.60;99.90
49679;DHT22;35570;48.218;16.326;2024-01-10T07:17:55;-5.50;99.90
49679;DHT22;35570;48.218;16.326;2024-01-10T07:20:21;-5.50;99.90
49679;DHT22;35570;48.218;16.326;2024-01-10T07:22:49;-5.30;99.90
49679;DHT22;35570;48.218;16.326;2024-01-10T07:25:15;-5.20;99.90
49679;DHT22;35570;48.218;16.326;2024-01-10T07:27:41;-5.00;99.90
49679;DHT22;35570;48.218;16.326;2024-01-10T07:30:07;-4.80;99.90
49679;DHT22;35570;48.218;16.326;2024-01-10T07:32:43;-4.70;99.90
49679;DHT22;35570;48.218;16.326;2024-01-10T07:35:09;-4.50;99.90
49679;DHT22;35570;48.218;16.326;2024-01-10T07:37:39;-4.40;99.90
49679;DHT22;35570;48.218;16.326;2024-01-10T07:40:06;-4.20;99.90
49679;DHT22;35570;48.218;16.326;2024-01-10T07:42:33;-4.10;99.80
49679;DHT22;35570;48.218;16.326;2024-01-10T07:44:59;-3.90;99.50
49679;DHT22;35570;48.218;16.326;2024-01-10T07:47:25;-3.80;98.80
49679;DHT22;35570;48.218;16.326;2024-01-10T07:49:50;-3.60;98.20
49679;DHT22;35570;48.218;16.326;2024-01-10T07:52:16;-3.40;98.00
49679;DHT22;35570;48.218;16.326;2024-01-10T07:54:42;-2.90;97.70
49679;DHT22;35570;48.218;16.326;2024-01-10T07:57:08;-3.20;97.10
49679;DHT22;35570;48.218;16.326;2024-01-10T07:59:33;-3.10;96.40
49679;DHT22;35570;48.218;16.326;2024-01-10T08:02:02;-2.90;95.80
49679;DHT22;35570;48.218;16.326;2024-01-10T08:04:28;-2.70;95.90
49679;DHT22;35570;48.218;16.326;2024-01-10T08:06:55;-2.60;94.60
49679;DHT22;35570;48.218;16.326;2024-01-10T08:09:22;-2.60;93.90
49679;DHT22;35570;48.218;16.326;2024-01-10T08:11:49;-2.70;93.40
49679;DHT22;35570;48.218;16.326;2024-01-10T08:14:15;-2.90;93.30
49679;DHT22;35570;48.218;16.326;2024-01-10T08:16:41;-2.90;93.50
49679;DHT22;35570;48.218;16.326;2024-01-10T08:19:08;-2.90;93.10
49679;DHT22;35570;48.218;16.326;2024-01-10T08:21:34;-2.80;93.00
49679;DHT22;35570;48.218;16.326;2024-01-10T08:24:01;-2.70;93.00
49679;DHT22;35570;48.218;16.326;2024-01-10T08:26:27;-2.60;92.90
49679;DHT22;35570;48.218;16.326;2024-01-10T08:28:53;-2.50;92.70
49679;DHT22;35570;48.218;16.326;2024-01-10T08:31:19;-2.40;91.80
49679;DHT22;35570;48.218;16.326;2024-01-10T08:33:44;-2.20;91.60
49679;DHT22;35570;48.218;16.326;2024-01-10T08:36:10;-1.90;91.90
49679;DHT22;35570;48.218;16.326;2024-01-10T08:38:38;-1.70;90.90
49679;DHT22;35570;48.218;16.326;2024-01-10T08:41:03;-1.50;90.00
49679;DHT22;35570;48.218;16.326;2024-01-10T08:43:29;-1.30;90.30
49679;DHT22;35570;48.218;16.326;2024-01-10T08:46:34;-1.10;88.00
49679;DHT22;35570;48.218;16.326;2024-01-10T08:49:11;-0.90;86.60
49679;DHT22;35570;48.218;16.326;2024-01-10T09:30:34;1.00;75.70
49679;DHT22;35570;48.218;16.326;2024-01-10T09:33:00;1.00;78.30
49679;DHT22;35570;48.218;16.326;2024-01-10T09:35:26;1.00;75.20
49679;DHT22;35570;48.218;16.326;2024-01-10T09:37:52;1.50;73.60
49679;DHT22;35570;48.218;16.326;2024-01-10T09:40:19;1.40;76.30
49679;DHT22;35570;48.218;16.326;2024-01-10T09:42:49;0.80;99.90
49679;DHT22;35570;48.218;16.326;2024-01-10T09:49:02;0.70;93.40
49679;DHT22;35570;48.218;16.326;2024-01-10T09:51:29;0.80;95.40
49679;DHT22;35570;48.218;16.326;2024-01-10T09:53:57;0.90;94.90
49679;DHT22;35570;48.218;16.326;2024-01-10T09:56:23;1.10;93.60
49679;DHT22;35570;48.218;16.326;2024-01-10T10:02:14;1.40;88.10
49679;DHT22;35570;48.218;16.326;2024-01-10T10:07:50;1.90;86.00
49679;DHT22;35570;48.218;16.326;2024-01-10T10:10:17;2.10;81.60
49679;DHT22;35570;48.218;16.326;2024-01-10T10:12:50;2.20;77.80
49679;DHT22;35570;48.218;16.326;2024-01-10T10:15:29;2.20;82.10
49679;DHT22;35570;48.218;16.326;2024-01-10T10:17:55;2.40;79.90
49679;DHT22;35570;48.218;16.326;2024-01-10T10:20:28;2.40;78.00
49679;DHT22;35570;48.218;16.326;2024-01-10T10:22:59;2.40;76.70
49679;DHT22;35570;48.218;16.326;2024-01-10T10:25:30;2.40;75.70
49679;DHT22;35570;48.218;16.326;2024-01-10T10:27:59;2.60;76.70
49679;DHT22;35570;48.218;16.326;2024-01-10T10:33:32;3.30;72.10
49679;DHT22;35570;48.218;16.326;2024-01-10T10:35:58;4.30;68.50
49679;DHT22;35570;48.218;16.326;2024-01-10T10:38:28;4.80;66.10
49679;DHT22;35570;48.218;16.326;2024-01-10T10:46:32;9.70;51.50
49679;DHT22;35570;48.218;16.326;2024-01-10T10:51:33;11.20;48.70
49679;DHT22;35570;48.218;16.326;2024-01-10T11:07:48;10.30;46.90
49679;DHT22;35570;48.218;16.326;2024-01-10T11:21:23;10.20;48.20
49679;DHT22;35570;48.218;16.326;2024-01-10T11:24:01;10.80;47.50
49679;DHT22;35570;48.218;16.326;2024-01-10T11:26:27;11.00;47.80
49679;DHT22;35570;48.218;16.326;2024-01-10T11:28:59;11.00;48.20
49679;DHT22;35570;48.218;16.326;2024-01-10T11:31:30;11.10;47.40
49679;DHT22;35570;48.218;16.326;2024-01-10T11:47:28;10.30;49.70
49679;DHT22;35570;48.218;16.326;2024-01-10T11:49:58;10.70;50.10
49679;DHT22;35570;48.218;16.326;2024-01-10T11:52:32;10.90;49.20
49679;DHT22;35570;48.218;16.326;2024-01-10T11:58:17;10.80;48.10
49679;DHT22;35570;48.218;16.326;2024-01-10T12:00:46;10.50;49.10
49679;DHT22;35570;48.218;16.326;2024-01-10T12:03:13;10.40;49.20
49679;DHT22;35570;48.218;16.326;2024-01-10T12:05:40;10.50;49.90
49679;DHT22;35570;48.218;16.326;2024-01-10T12:08:26;10.40;48.80
49679;DHT22;35570;48.218;16.326;2024-01-10T12:13:39;10.20;49.60
49679;DHT22;35570;48.218;16.326;2024-01-10T12:16:06;10.40;50.10
49679;DHT22;35570;48.218;16.326;2024-01-10T12:18:31;10.50;50.50
49679;DHT22;35570;48.218;16.326;2024-01-10T12:20:57;10.70;48.90
49679;DHT22;35570;48.218;16.326;2024-01-10T12:23:23;10.60;48.80
49679;DHT22;35570;48.218;16.326;2024-01-10T12:25:49;10.90;49.20
49679;DHT22;35570;48.218;16.326;2024-01-10T12:28:17;11.30;48.20
49679;DHT22;35570;48.218;16.326;2024-01-10T12:30:43;11.60;47.60
49679;DHT22;35570;48.218;16.326;2024-01-10T12:33:09;11.80;47.20
49679;DHT22;35570;48.218;16.326;2024-01-10T12:35:35;12.00;47.30
49679;DHT22;35570;48.218;16.326;2024-01-10T12:38:00;11.90;47.00
49679;DHT22;35570;48.218;16.326;2024-01-10T12:40:26;12.00;47.90
49679;DHT22;35570;48.218;16.326;2024-01-10T12:43:04;11.90;47.20
49679;DHT22;35570;48.218;16.326;2024-01-10T12:45:30;11.70;47.10
49679;DHT22;35570;48.218;16.326;2024-01-10T12:47:57;11.40;47.70
49679;DHT22;35570;48.218;16.326;2024-01-10T12:50:23;11.10;48.50
49679;DHT22;35570;48.218;16.326;2024-01-10T13:03:59;11.10;48.10
49679;DHT22;35570;48.218;16.326;2024-01-10T13:06:25;11.30;47.60
49679;DHT22;35570;48.218;16.326;2024-01-10T13:08:50;11.30;47.40
49679;DHT22;35570;48.218;16.326;2024-01-10T13:11:16;10.90;48.00
49679;DHT22;35570;48.218;16.326;2024-01-10T13:13:49;10.60;48.30
49679;DHT22;35570;48.218;16.326;2024-01-10T13:16:31;10.30;48.80
49679;DHT22;35570;48.218;16.326;2024-01-10T13:18:58;10.00;48.70
49679;DHT22;35570;48.218;16.326;2024-01-10T13:21:25;9.90;49.10
49679;DHT22;35570;48.218;16.326;2024-01-10T13:23:51;9.50;50.50
49679;DHT22;35570;48.218;16.326;2024-01-10T13:26:17;9.30;50.90
49679;DHT22;35570;48.218;16.326;2024-01-10T13:28:43;8.90;51.40
49679;DHT22;35570;48.218;16.326;2024-01-10T13:31:09;8.50;51.70
49679;DHT22;35570;48.218;16.326;2024-01-10T13:34:10;8.20;53.30
49679;DHT22;35570;48.218;16.326;2024-01-10T13:36:36;7.90;54.00
49679;DHT22;35570;48.218;16.326;2024-01-10T13:39:02;7.60;54.30
49679;DHT22;35570;48.218;16.326;2024-01-10T13:41:29;7.30;55.10
49679;DHT22;35570;48.218;16.326;2024-01-10T13:43:54;6.80;56.30
49679;DHT22;35570;48.218;16.326;2024-01-10T13:46:22;6.40;57.10
49679;DHT22;35570;48.218;16.326;2024-01-10T13:48:47;6.20;58.40
49679;DHT22;35570;48.218;16.326;2024-01-10T13:51:13;6.10;58.90
49679;DHT22;35570;48.218;16.326;2024-01-10T13:53:39;6.10;58.90
49679;DHT22;35570;48.218;16.326;2024-01-10T14:02:17;5.00;61.90
49679;DHT22;35570;48.218;16.326;2024-01-10T14:04:45;4.70;63.70
49679;DHT22;35570;48.218;16.326;2024-01-10T14:07:38;4.30;63.90
49679;DHT22;35570;48.218;16.326;2024-01-10T14:10:05;5.20;65.70
49679;DHT22;35570;48.218;16.326;2024-01-10T14:12:30;4.50;71.60
49679;DHT22;35570;48.218;16.326;2024-01-10T14:15:01;5.00;79.20
49679;DHT22;35570;48.218;16.326;2024-01-10T14:17:26;3.70;66.80
49679;DHT22;35570;48.218;16.326;2024-01-10T14:19:52;3.80;67.40
49679;DHT22;35570;48.218;16.326;2024-01-10T14:22:18;3.90;67.60
49679;DHT22;35570;48.218;16.326;2024-01-10T14:24:44;4.90;67.90
49679;DHT22;35570;48.218;16.326;2024-01-10T14:27:10;4.50;68.00
49679;DHT22;35570;48.218;16.326;2024-01-10T14:29:36;3.80;67.80
49679;DHT22;35570;48.218;16.326;2024-01-10T14:32:02;3.30;67.60
49679;DHT22;35570;48.218;16.326;2024-01-10T14:34:29;3.50;68.60
49679;DHT22;35570;48.218;16.326;2024-01-10T14:39:24;3.40;68.80
49679;DHT22;35570;48.218;16.326;2024-01-10T14:41:50;3.30;70.10
49679;DHT22;35570;48.218;16.326;2024-01-10T14:44:16;3.50;71.00
49679;DHT22;35570;48.218;16.326;2024-01-10T14:46:42;3.00;71.40
49679;DHT22;35570;48.218;16.326;2024-01-10T14:49:08;2.90;72.70
49679;DHT22;35570;48.218;16.326;2024-01-10T14:51:34;2.70;73.00
49679;DHT22;35570;48.218;16.326;2024-01-10T14:54:00;5.70;76.50
49679;DHT22;35570;48.218;16.326;2024-01-10T14:56:26;2.50;78.20
49679;DHT22;35570;48.218;16.326;2024-01-10T14:58:51;3.20;80.00
49679;DHT22;35570;48.218;16.326;2024-01-10T15:04:13;2.10;79.00
49679;DHT22;35570;48.218;16.326;2024-01-10T15:09:50;1.90;80.20
49679;DHT22;35570;48.218;16.326;2024-01-10T15:12:15;2.50;81.50
49679;DHT22;35570;48.218;16.326;2024-01-10T15:14:42;3.30;83.20
49679;DHT22;35570;48.218;16.326;2024-01-10T15:17:08;2.00;84.10
49679;DHT22;35570;48.218;16.326;2024-01-10T15:19:35;4.00;86.30
49679;DHT22;35570;48.218;16.326;2024-01-10T15:22:01;2.60;86.20
49679;DHT22;35570;48.218;16.326;2024-01-10T15:24:28;1.30;88.50
49679;DHT22;35570;48.218;16.326;2024-01-10T15:26:55;1.40;89.60
49679;DHT22;35570;48.218;16.326;2024-01-10T15:29:27;3.20;90.50
49679;DHT22;35570;48.218;16.326;2024-01-10T15:31:53;3.40;91.20
49679;DHT22;35570;48.218;16.326;2024-01-10T15:42:05;1.00;94.00
49679;DHT22;35570;48.218;16.326;2024-01-10T15:44:55;0.80;94.50
49679;DHT22;35570;48.218;16.326;2024-01-10T15:47:21;1.00;98.90
49679;DHT22;35570;48.218;16.326;2024-01-10T15:49:47;2.40;96.50
49679;DHT22;35570;48.218;16.326;2024-01-10T15:52:13;1.60;96.50
49679;DHT22;35570;48.218;16.326;2024-01-10T15:54:39;0.70;95.40
49679;DHT22;35570;48.218;16.326;2024-01-10T15:57:05;2.20;96.00
49679;DHT22;35570;48.218;16.326;2024-01-10T15:59:34;0.50;95.60
49679;DHT22;35570;48.218;16.326;2024-01-10T16:02:02;1.00;95.90
49679;DHT22;35570;48.218;16.326;2024-01-10T16:04:29;0.70;96.20
49679;DHT22;35570;48.218;16.326;2024-01-10T16:06:55;1.10;99.90
49679;DHT22;35570;48.218;16.326;2024-01-10T16:09:21;0.70;99.90
49679;DHT22;35570;48.218;16.326;2024-01-10T16:11:46;0.70;99.90
49679;DHT22;35570;48.218;16.326;2024-01-10T16:14:12;0.60;99.90
49679;DHT22;35570;48.218;16.326;2024-01-10T16:16:39;0.40;99.90
49679;DHT22;35570;48.218;16.326;2024-01-10T16:19:04;0.60;99.90
49679;DHT22;35570;48.218;16.326;2024-01-10T16:29:03;0.50;99.90
49679;DHT22;35570;48.218;16.326;2024-01-10T16:31:31;0.50;99.90
49679;DHT22;35570;48.218;16.326;2024-01-10T16:33:57;-0.10;99.90
49679;DHT22;35570;48.218;16.326;2024-01-10T16:36:24;0.40;99.90
49679;DHT22;35570;48.218;16.326;2024-01-10T16:39:09;0.40;99.90
49679;DHT22;35570;48.218;16.326;2024-01-10T16:41:35;0.20;99.60
49679;DHT22;35570;48.218;16.326;2024-01-10T16:44:01;0.30;99.90
49679;DHT22;35570;48.218;16.326;2024-01-10T16:46:27;0.30;99.90
49679;DHT22;35570;48.218;16.326;2024-01-10T16:48:54;0.20;97.20
49679;DHT22;35570;48.218;16.326;2024-01-10T16:51:20;-0.10;97.30
49679;DHT22;35570;48.218;16.326;2024-01-10T16:54:04;2.50;97.80
49679;DHT22;35570;48.218;16.326;2024-01-10T16:56:30;0.20;97.40
49679;DHT22;35570;48.218;16.326;2024-01-10T16:58:56;0.10;97.60
49679;DHT22;35570;48.218;16.326;2024-01-10T17:02:00;0.20;97.60
49679;DHT22;35570;48.218;16.326;2024-01-10T17:04:26;0.20;97.50
49679;DHT22;35570;48.218;16.326;2024-01-10T17:06:52;0.20;97.50
49679;DHT22;35570;48.218;16.326;2024-01-10T17:09:18;0.20;97.60
49679;DHT22;35570;48.218;16.326;2024-01-10T19:57:23;-1.30;99.90
49679;DHT22;35570;48.218;16.326;2024-01-10T19:59:48;0.00;99.90
49679;DHT22;35570;48.218;16.326;2024-01-10T22:14:45;-2.10;99.90
